Terminal Aerodrome Forecast
Issued by NWS Bismarck, ND

Home | Current Version | Previous Version | Text Only | Print | Product List | Glossary Off
Versions: 1 2 3 4 5 6 7 8 9 10 11 12 13 14 15 16 17 18 19 20

000
FTUS43 KBIS 240500
TAFISN
TAF
KISN 240536Z 2406/2506 19006KT 5SM BR SCT250
      TEMPO 2406/2410 1SM BR
     FM241000 18004KT P6SM BKN100 OVC250
     FM241500 21007KT P6SM BKN040 OVC080
     FM250000 34008KT P6SM BKN020 OVC040=

USA.gov is the U.S. government's official web portal to all federal, state and local government web resources and services.